sensor_id;sensor_type;location;lat;lon;timestamp;P1;durP1;ratioP1;P2;durP2;ratioP2
69083;SDS011;56185;48.526;9.044;2022-10-22T00:00:30;2.00;;;1.37;;
69083;SDS011;56185;48.526;9.044;2022-10-22T00:02:56;5.53;;;1.80;;
69083;SDS011;56185;48.526;9.044;2022-10-22T00:05:21;3.97;;;1.20;;
69083;SDS011;56185;48.526;9.044;2022-10-22T00:07:46;3.13;;;1.30;;
69083;SDS011;56185;48.526;9.044;2022-10-22T00:10:11;5.83;;;1.33;;
69083;SDS011;56185;48.526;9.044;2022-10-22T00:12:37;4.27;;;1.10;;
69083;SDS011;56185;48.526;9.044;2022-10-22T00:15:04;4.18;;;1.10;;
69083;SDS011;56185;48.526;9.044;2022-10-22T00:17:30;2.28;;;1.08;;
69083;SDS011;56185;48.526;9.044;2022-10-22T00:19:55;7.38;;;1.10;;
69083;SDS011;56185;48.526;9.044;2022-10-22T00:22:20;2.20;;;1.00;;
69083;SDS011;56185;48.526;9.044;2022-10-22T00:24:46;3.78;;;1.40;;
69083;SDS011;56185;48.526;9.044;2022-10-22T00:27:11;2.00;;;1.30;;
69083;SDS011;56185;48.526;9.044;2022-10-22T00:29:37;2.90;;;1.20;;
69083;SDS011;56185;48.526;9.044;2022-10-22T00:32:02;2.83;;;1.30;;
69083;SDS011;56185;48.526;9.044;2022-10-22T00:34:28;2.10;;;1.20;;
69083;SDS011;56185;48.526;9.044;2022-10-22T00:36:54;3.08;;;1.10;;
69083;SDS011;56185;48.526;9.044;2022-10-22T00:39:20;4.07;;;1.00;;
69083;SDS011;56185;48.526;9.044;2022-10-22T00:41:47;2.47;;;0.95;;
69083;SDS011;56185;48.526;9.044;2022-10-22T00:47:16;5.10;;;1.30;;
69083;SDS011;56185;48.526;9.044;2022-10-22T00:49:43;2.60;;;1.02;;
69083;SDS011;56185;48.526;9.044;2022-10-22T00:52:10;1.70;;;1.00;;
69083;SDS011;56185;48.526;9.044;2022-10-22T00:54:35;2.65;;;1.20;;
69083;SDS011;56185;48.526;9.044;2022-10-22T00:57:01;3.22;;;0.90;;
69083;SDS011;56185;48.526;9.044;2022-10-22T00:59:26;1.98;;;1.10;;
69083;SDS011;56185;48.526;9.044;2022-10-22T01:01:52;4.32;;;1.10;;
69083;SDS011;56185;48.526;9.044;2022-10-22T01:04:18;4.47;;;0.90;;
69083;SDS011;56185;48.526;9.044;2022-10-22T01:06:44;2.53;;;1.00;;
69083;SDS011;56185;48.526;9.044;2022-10-22T01:09:20;5.55;;;1.08;;
69083;SDS011;56185;48.526;9.044;2022-10-22T01:12:11;2.35;;;1.27;;
69083;SDS011;56185;48.526;9.044;2022-10-22T01:17:58;3.08;;;1.30;;
69083;SDS011;56185;48.526;9.044;2022-10-22T01:23:21;2.42;;;1.13;;
69083;SDS011;56185;48.526;9.044;2022-10-22T01:31:43;2.47;;;1.20;;
69083;SDS011;56185;48.526;9.044;2022-10-22T01:34:16;3.90;;;1.20;;
69083;SDS011;56185;48.526;9.044;2022-10-22T01:36:42;4.18;;;1.30;;
69083;SDS011;56185;48.526;9.044;2022-10-22T01:39:10;3.83;;;1.48;;
69083;SDS011;56185;48.526;9.044;2022-10-22T01:41:38;3.60;;;1.05;;
69083;SDS011;56185;48.526;9.044;2022-10-22T01:44:04;4.00;;;1.10;;
69083;SDS011;56185;48.526;9.044;2022-10-22T01:46:29;3.57;;;1.10;;
69083;SDS011;56185;48.526;9.044;2022-10-22T01:56:55;3.88;;;0.80;;
69083;SDS011;56185;48.526;9.044;2022-10-22T02:00:23;2.20;;;0.90;;
69083;SDS011;56185;48.526;9.044;2022-10-22T02:05:07;4.22;;;0.80;;
69083;SDS011;56185;48.526;9.044;2022-10-22T02:07:46;1.50;;;0.73;;
69083;SDS011;56185;48.526;9.044;2022-10-22T02:10:14;2.70;;;0.90;;
69083;SDS011;56185;48.526;9.044;2022-10-22T02:12:42;4.35;;;0.80;;
69083;SDS011;56185;48.526;9.044;2022-10-22T02:15:12;2.38;;;0.73;;
69083;SDS011;56185;48.526;9.044;2022-10-22T02:17:39;2.70;;;0.70;;
69083;SDS011;56185;48.526;9.044;2022-10-22T02:20:12;1.30;;;0.70;;
69083;SDS011;56185;48.526;9.044;2022-10-22T02:22:41;1.00;;;0.70;;
69083;SDS011;56185;48.526;9.044;2022-10-22T02:25:07;1.65;;;0.70;;
69083;SDS011;56185;48.526;9.044;2022-10-22T02:27:43;1.05;;;0.60;;
69083;SDS011;56185;48.526;9.044;2022-10-22T02:30:21;2.22;;;0.70;;
69083;SDS011;56185;48.526;9.044;2022-10-22T02:32:49;2.10;;;0.77;;
69083;SDS011;56185;48.526;9.044;2022-10-22T02:35:20;4.72;;;0.85;;
69083;SDS011;56185;48.526;9.044;2022-10-22T02:37:47;1.67;;;0.82;;
69083;SDS011;56185;48.526;9.044;2022-10-22T02:40:13;2.28;;;0.70;;
69083;SDS011;56185;48.526;9.044;2022-10-22T02:42:39;1.10;;;0.70;;
69083;SDS011;56185;48.526;9.044;2022-10-22T02:45:06;2.63;;;1.10;;
69083;SDS011;56185;48.526;9.044;2022-10-22T02:47:31;3.20;;;1.00;;
69083;SDS011;56185;48.526;9.044;2022-10-22T02:49:56;2.47;;;0.85;;
69083;SDS011;56185;48.526;9.044;2022-10-22T02:52:22;1.73;;;0.80;;
69083;SDS011;56185;48.526;9.044;2022-10-22T02:54:47;1.43;;;0.90;;
69083;SDS011;56185;48.526;9.044;2022-10-22T02:57:12;1.52;;;0.80;;
69083;SDS011;56185;48.526;9.044;2022-10-22T02:59:37;6.53;;;1.08;;
69083;SDS011;56185;48.526;9.044;2022-10-22T03:02:03;1.43;;;0.70;;
69083;SDS011;56185;48.526;9.044;2022-10-22T03:04:28;4.17;;;0.97;;
69083;SDS011;56185;48.526;9.044;2022-10-22T03:06:53;3.53;;;0.88;;
69083;SDS011;56185;48.526;9.044;2022-10-22T03:09:19;1.23;;;0.87;;
69083;SDS011;56185;48.526;9.044;2022-10-22T03:11:44;2.60;;;0.90;;
69083;SDS011;56185;48.526;9.044;2022-10-22T03:14:09;2.10;;;0.90;;
69083;SDS011;56185;48.526;9.044;2022-10-22T03:16:34;1.50;;;0.80;;
69083;SDS011;56185;48.526;9.044;2022-10-22T03:19:00;1.52;;;0.80;;
69083;SDS011;56185;48.526;9.044;2022-10-22T03:21:28;1.87;;;0.80;;
69083;SDS011;56185;48.526;9.044;2022-10-22T03:23:56;1.52;;;0.80;;
69083;SDS011;56185;48.526;9.044;2022-10-22T03:26:24;3.80;;;0.90;;
69083;SDS011;56185;48.526;9.044;2022-10-22T03:28:50;2.72;;;0.70;;
69083;SDS011;56185;48.526;9.044;2022-10-22T03:31:15;1.50;;;0.80;;
69083;SDS011;56185;48.526;9.044;2022-10-22T03:33:40;4.72;;;0.80;;
69083;SDS011;56185;48.526;9.044;2022-10-22T03:36:06;1.30;;;0.80;;
69083;SDS011;56185;48.526;9.044;2022-10-22T03:38:33;1.30;;;0.80;;
69083;SDS011;56185;48.526;9.044;2022-10-22T03:41:00;1.83;;;0.80;;
69083;SDS011;56185;48.526;9.044;2022-10-22T03:43:25;1.40;;;0.68;;
69083;SDS011;56185;48.526;9.044;2022-10-22T03:45:51;3.55;;;0.80;;
69083;SDS011;56185;48.526;9.044;2022-10-22T03:48:16;3.30;;;0.80;;
69083;SDS011;56185;48.526;9.044;2022-10-22T03:50:41;2.93;;;0.63;;
69083;SDS011;56185;48.526;9.044;2022-10-22T03:53:06;2.73;;;0.63;;
69083;SDS011;56185;48.526;9.044;2022-10-22T03:55:32;6.03;;;0.73;;
69083;SDS011;56185;48.526;9.044;2022-10-22T03:57:57;1.97;;;0.73;;
69083;SDS011;56185;48.526;9.044;2022-10-22T04:00:22;2.30;;;0.70;;
69083;SDS011;56185;48.526;9.044;2022-10-22T04:02:47;5.30;;;0.90;;
69083;SDS011;56185;48.526;9.044;2022-10-22T04:05:13;3.27;;;0.60;;
69083;SDS011;56185;48.526;9.044;2022-10-22T04:07:38;1.20;;;0.70;;
69083;SDS011;56185;48.526;9.044;2022-10-22T04:10:03;2.17;;;0.70;;
69083;SDS011;56185;48.526;9.044;2022-10-22T04:12:29;0.70;;;0.63;;
69083;SDS011;56185;48.526;9.044;2022-10-22T04:14:54;1.70;;;0.70;;
69083;SDS011;56185;48.526;9.044;2022-10-22T04:17:19;3.90;;;0.80;;
69083;SDS011;56185;48.526;9.044;2022-10-22T04:19:45;1.10;;;0.80;;
69083;SDS011;56185;48.526;9.044;2022-10-22T04:22:10;3.77;;;0.70;;
69083;SDS011;56185;48.526;9.044;2022-10-22T04:24:35;1.92;;;0.70;;
69083;SDS011;56185;48.526;9.044;2022-10-22T04:27:00;1.30;;;0.70;;
69083;SDS011;56185;48.526;9.044;2022-10-22T04:29:26;1.53;;;0.60;;
69083;SDS011;56185;48.526;9.044;2022-10-22T04:31:51;1.00;;;0.70;;
69083;SDS011;56185;48.526;9.044;2022-10-22T04:34:17;3.10;;;0.70;;
69083;SDS011;56185;48.526;9.044;2022-10-22T04:36:42;5.40;;;0.80;;
69083;SDS011;56185;48.526;9.044;2022-10-22T04:39:07;1.45;;;0.70;;
69083;SDS011;56185;48.526;9.044;2022-10-22T04:41:36;1.38;;;0.80;;
69083;SDS011;56185;48.526;9.044;2022-10-22T04:44:03;1.35;;;0.77;;
69083;SDS011;56185;48.526;9.044;2022-10-22T04:46:30;2.58;;;0.85;;
69083;SDS011;56185;48.526;9.044;2022-10-22T04:48:57;2.55;;;0.80;;
69083;SDS011;56185;48.526;9.044;2022-10-22T04:51:23;7.13;;;1.48;;
69083;SDS011;56185;48.526;9.044;2022-10-22T04:53:50;3.42;;;1.02;;
69083;SDS011;56185;48.526;9.044;2022-10-22T04:56:16;2.17;;;1.02;;
69083;SDS011;56185;48.526;9.044;2022-10-22T04:58:43;1.20;;;0.88;;
69083;SDS011;56185;48.526;9.044;2022-10-22T05:01:09;3.35;;;0.75;;
69083;SDS011;56185;48.526;9.044;2022-10-22T05:03:55;3.80;;;0.90;;
69083;SDS011;56185;48.526;9.044;2022-10-22T05:06:22;1.08;;;0.70;;
69083;SDS011;56185;48.526;9.044;2022-10-22T05:08:52;4.78;;;0.90;;
69083;SDS011;56185;48.526;9.044;2022-10-22T05:11:20;2.00;;;0.90;;
69083;SDS011;56185;48.526;9.044;2022-10-22T05:13:51;4.55;;;0.82;;
69083;SDS011;56185;48.526;9.044;2022-10-22T05:16:16;4.32;;;1.10;;
69083;SDS011;56185;48.526;9.044;2022-10-22T05:18:42;2.20;;;0.80;;
69083;SDS011;56185;48.526;9.044;2022-10-22T05:21:10;1.08;;;0.80;;
69083;SDS011;56185;48.526;9.044;2022-10-22T05:23:37;1.58;;;0.80;;
69083;SDS011;56185;48.526;9.044;2022-10-22T05:26:03;2.53;;;0.63;;
69083;SDS011;56185;48.526;9.044;2022-10-22T05:28:30;2.13;;;0.77;;
69083;SDS011;56185;48.526;9.044;2022-10-22T05:31:04;1.25;;;0.90;;
69083;SDS011;56185;48.526;9.044;2022-10-22T05:33:31;2.00;;;0.82;;
69083;SDS011;56185;48.526;9.044;2022-10-22T05:35:57;1.48;;;1.00;;
69083;SDS011;56185;48.526;9.044;2022-10-22T05:38:23;1.85;;;0.82;;
69083;SDS011;56185;48.526;9.044;2022-10-22T05:40:59;1.52;;;0.90;;
69083;SDS011;56185;48.526;9.044;2022-10-22T05:43:28;2.53;;;1.00;;
69083;SDS011;56185;48.526;9.044;2022-10-22T05:45:54;2.50;;;0.90;;
69083;SDS011;56185;48.526;9.044;2022-10-22T05:48:19;1.25;;;0.90;;
69083;SDS011;56185;48.526;9.044;2022-10-22T05:50:44;1.97;;;0.90;;
69083;SDS011;56185;48.526;9.044;2022-10-22T05:53:10;2.05;;;0.80;;
69083;SDS011;56185;48.526;9.044;2022-10-22T05:55:35;2.28;;;0.90;;
69083;SDS011;56185;48.526;9.044;2022-10-22T05:58:02;2.75;;;1.10;;
69083;SDS011;56185;48.526;9.044;2022-10-22T06:00:27;2.45;;;0.85;;
69083;SDS011;56185;48.526;9.044;2022-10-22T06:02:53;1.48;;;1.02;;
69083;SDS011;56185;48.526;9.044;2022-10-22T06:05:18;1.40;;;0.90;;
69083;SDS011;56185;48.526;9.044;2022-10-22T06:07:43;0.90;;;0.80;;
69083;SDS011;56185;48.526;9.044;2022-10-22T06:10:12;2.17;;;0.93;;
69083;SDS011;56185;48.526;9.044;2022-10-22T06:12:39;2.83;;;1.20;;
69083;SDS011;56185;48.526;9.044;2022-10-22T06:15:04;1.92;;;0.90;;
69083;SDS011;56185;48.526;9.044;2022-10-22T06:17:30;1.27;;;0.70;;
69083;SDS011;56185;48.526;9.044;2022-10-22T06:19:55;1.10;;;0.80;;
69083;SDS011;56185;48.526;9.044;2022-10-22T06:22:21;3.42;;;1.30;;
69083;SDS011;56185;48.526;9.044;2022-10-22T06:24:46;3.80;;;1.40;;
69083;SDS011;56185;48.526;9.044;2022-10-22T06:27:11;2.53;;;1.70;;
69083;SDS011;56185;48.526;9.044;2022-10-22T06:29:37;2.80;;;2.13;;
69083;SDS011;56185;48.526;9.044;2022-10-22T06:32:02;4.68;;;2.53;;
69083;SDS011;56185;48.526;9.044;2022-10-22T06:34:27;4.53;;;2.00;;
69083;SDS011;56185;48.526;9.044;2022-10-22T06:36:52;6.17;;;1.80;;
69083;SDS011;56185;48.526;9.044;2022-10-22T06:39:18;3.70;;;1.83;;
69083;SDS011;56185;48.526;9.044;2022-10-22T06:41:43;2.35;;;1.80;;
69083;SDS011;56185;48.526;9.044;2022-10-22T06:44:15;5.60;;;1.80;;
69083;SDS011;56185;48.526;9.044;2022-10-22T06:46:41;2.92;;;1.55;;
69083;SDS011;56185;48.526;9.044;2022-10-22T06:49:09;1.98;;;1.38;;
69083;SDS011;56185;48.526;9.044;2022-10-22T06:51:51;2.42;;;1.50;;
69083;SDS011;56185;48.526;9.044;2022-10-22T06:54:17;3.42;;;1.80;;
69083;SDS011;56185;48.526;9.044;2022-10-22T06:56:42;4.28;;;1.80;;
69083;SDS011;56185;48.526;9.044;2022-10-22T06:59:07;4.88;;;1.80;;
69083;SDS011;56185;48.526;9.044;2022-10-22T07:01:33;3.17;;;1.70;;
69083;SDS011;56185;48.526;9.044;2022-10-22T07:03:59;8.10;;;1.70;;
69083;SDS011;56185;48.526;9.044;2022-10-22T07:06:25;3.15;;;1.48;;
69083;SDS011;56185;48.526;9.044;2022-10-22T07:08:52;2.40;;;1.30;;
69083;SDS011;56185;48.526;9.044;2022-10-22T07:11:19;2.90;;;1.38;;
69083;SDS011;56185;48.526;9.044;2022-10-22T07:13:46;2.17;;;1.30;;
69083;SDS011;56185;48.526;9.044;2022-10-22T07:16:13;2.50;;;1.10;;
69083;SDS011;56185;48.526;9.044;2022-10-22T07:18:39;2.88;;;1.20;;
69083;SDS011;56185;48.526;9.044;2022-10-22T07:21:05;3.30;;;1.25;;
69083;SDS011;56185;48.526;9.044;2022-10-22T07:23:32;2.60;;;0.80;;
69083;SDS011;56185;48.526;9.044;2022-10-22T07:25:57;4.93;;;1.00;;
69083;SDS011;56185;48.526;9.044;2022-10-22T07:28:22;3.70;;;1.10;;
69083;SDS011;56185;48.526;9.044;2022-10-22T07:30:48;3.53;;;1.10;;
69083;SDS011;56185;48.526;9.044;2022-10-22T07:33:13;2.22;;;1.20;;
69083;SDS011;56185;48.526;9.044;2022-10-22T07:35:39;2.00;;;1.40;;
69083;SDS011;56185;48.526;9.044;2022-10-22T07:38:05;2.10;;;1.40;;
69083;SDS011;56185;48.526;9.044;2022-10-22T07:40:31;2.70;;;1.40;;
69083;SDS011;56185;48.526;9.044;2022-10-22T07:42:57;3.35;;;1.60;;
69083;SDS011;56185;48.526;9.044;2022-10-22T07:45:23;5.05;;;1.50;;
69083;SDS011;56185;48.526;9.044;2022-10-22T07:47:48;2.13;;;1.60;;
69083;SDS011;56185;48.526;9.044;2022-10-22T07:50:14;2.08;;;1.42;;
69083;SDS011;56185;48.526;9.044;2022-10-22T07:52:39;2.25;;;1.50;;
69083;SDS011;56185;48.526;9.044;2022-10-22T07:55:05;5.75;;;1.52;;
69083;SDS011;56185;48.526;9.044;2022-10-22T07:57:30;5.22;;;2.35;;
69083;SDS011;56185;48.526;9.044;2022-10-22T07:59:56;2.70;;;1.80;;
69083;SDS011;56185;48.526;9.044;2022-10-22T08:02:23;5.20;;;1.80;;
69083;SDS011;56185;48.526;9.044;2022-10-22T08:04:48;3.28;;;1.65;;
69083;SDS011;56185;48.526;9.044;2022-10-22T08:07:14;3.72;;;2.10;;
69083;SDS011;56185;48.526;9.044;2022-10-22T08:09:39;3.75;;;2.25;;
69083;SDS011;56185;48.526;9.044;2022-10-22T08:12:05;4.13;;;3.57;;
69083;SDS011;56185;48.526;9.044;2022-10-22T08:14:30;4.28;;;3.00;;
69083;SDS011;56185;48.526;9.044;2022-10-22T08:16:55;4.40;;;2.57;;
69083;SDS011;56185;48.526;9.044;2022-10-22T08:19:21;2.50;;;1.57;;
69083;SDS011;56185;48.526;9.044;2022-10-22T08:21:46;5.82;;;1.30;;
69083;SDS011;56185;48.526;9.044;2022-10-22T08:24:12;4.55;;;1.30;;
69083;SDS011;56185;48.526;9.044;2022-10-22T08:26:38;2.33;;;1.30;;
69083;SDS011;56185;48.526;9.044;2022-10-22T08:29:03;2.28;;;1.20;;
69083;SDS011;56185;48.526;9.044;2022-10-22T08:31:29;4.60;;;1.58;;
69083;SDS011;56185;48.526;9.044;2022-10-22T08:33:54;2.22;;;1.10;;
69083;SDS011;56185;48.526;9.044;2022-10-22T08:36:20;2.20;;;1.00;;
69083;SDS011;56185;48.526;9.044;2022-10-22T08:38:45;1.50;;;1.10;;
69083;SDS011;56185;48.526;9.044;2022-10-22T08:41:12;1.95;;;1.10;;
69083;SDS011;56185;48.526;9.044;2022-10-22T08:49:10;1.40;;;1.00;;
69083;SDS011;56185;48.526;9.044;2022-10-22T08:51:41;1.45;;;1.00;;
69083;SDS011;56185;48.526;9.044;2022-10-22T08:54:13;4.47;;;1.00;;
69083;SDS011;56185;48.526;9.044;2022-10-22T08:56:42;1.35;;;1.00;;
69083;SDS011;56185;48.526;9.044;2022-10-22T09:01:52;1.60;;;1.00;;
69083;SDS011;56185;48.526;9.044;2022-10-22T09:04:20;1.70;;;1.10;;
69083;SDS011;56185;48.526;9.044;2022-10-22T09:06:57;1.40;;;1.00;;
69083;SDS011;56185;48.526;9.044;2022-10-22T09:09:25;2.50;;;0.90;;
69083;SDS011;56185;48.526;9.044;2022-10-22T09:11:53;1.40;;;1.00;;
69083;SDS011;56185;48.526;9.044;2022-10-22T09:14:22;2.67;;;1.20;;
69083;SDS011;56185;48.526;9.044;2022-10-22T09:24:48;2.90;;;0.90;;
69083;SDS011;56185;48.526;9.044;2022-10-22T09:27:20;3.25;;;1.23;;
69083;SDS011;56185;48.526;9.044;2022-10-22T09:29:50;1.90;;;1.00;;
69083;SDS011;56185;48.526;9.044;2022-10-22T09:32:16;3.42;;;1.27;;
69083;SDS011;56185;48.526;9.044;2022-10-22T09:34:45;1.98;;;1.17;;
69083;SDS011;56185;48.526;9.044;2022-10-22T09:37:14;2.50;;;1.10;;
69083;SDS011;56185;48.526;9.044;2022-10-22T09:39:45;2.78;;;1.23;;
69083;SDS011;56185;48.526;9.044;2022-10-22T09:42:14;1.80;;;1.00;;
69083;SDS011;56185;48.526;9.044;2022-10-22T09:44:41;2.08;;;1.10;;
69083;SDS011;56185;48.526;9.044;2022-10-22T09:47:12;1.70;;;1.17;;
69083;SDS011;56185;48.526;9.044;2022-10-22T09:52:33;2.92;;;1.20;;
69083;SDS011;56185;48.526;9.044;2022-10-22T09:55:00;1.55;;;0.90;;
69083;SDS011;56185;48.526;9.044;2022-10-22T09:57:27;4.32;;;1.17;;
69083;SDS011;56185;48.526;9.044;2022-10-22T09:59:53;2.97;;;1.15;;
69083;SDS011;56185;48.526;9.044;2022-10-22T10:02:20;2.78;;;1.02;;
69083;SDS011;56185;48.526;9.044;2022-10-22T10:04:48;2.42;;;1.08;;
69083;SDS011;56185;48.526;9.044;2022-10-22T10:07:22;2.03;;;0.90;;
69083;SDS011;56185;48.526;9.044;2022-10-22T10:09:49;4.65;;;1.15;;
69083;SDS011;56185;48.526;9.044;2022-10-22T10:15:15;1.83;;;1.00;;
69083;SDS011;56185;48.526;9.044;2022-10-22T10:20:27;1.75;;;0.90;;
69083;SDS011;56185;48.526;9.044;2022-10-22T10:23:02;2.20;;;0.80;;
69083;SDS011;56185;48.526;9.044;2022-10-22T10:25:37;1.85;;;0.95;;
69083;SDS011;56185;48.526;9.044;2022-10-22T10:28:20;2.22;;;0.90;;
69083;SDS011;56185;48.526;9.044;2022-10-22T10:33:54;2.95;;;1.02;;
69083;SDS011;56185;48.526;9.044;2022-10-22T10:36:44;4.75;;;1.35;;
69083;SDS011;56185;48.526;9.044;2022-10-22T10:42:21;3.47;;;0.90;;
69083;SDS011;56185;48.526;9.044;2022-10-22T10:45:05;2.58;;;1.00;;
69083;SDS011;56185;48.526;9.044;2022-10-22T10:55:47;2.50;;;1.17;;
69083;SDS011;56185;48.526;9.044;2022-10-22T10:58:30;3.38;;;1.00;;
69083;SDS011;56185;48.526;9.044;2022-10-22T11:01:21;3.28;;;0.98;;
69083;SDS011;56185;48.526;9.044;2022-10-22T11:07:16;2.65;;;0.95;;
69083;SDS011;56185;48.526;9.044;2022-10-22T11:09:52;2.53;;;0.98;;
69083;SDS011;56185;48.526;9.044;2022-10-22T11:12:32;2.05;;;1.00;;
69083;SDS011;56185;48.526;9.044;2022-10-22T11:17:53;1.65;;;0.98;;
69083;SDS011;56185;48.526;9.044;2022-10-22T11:23:31;2.25;;;0.80;;
69083;SDS011;56185;48.526;9.044;2022-10-22T11:26:00;4.70;;;1.20;;
69083;SDS011;56185;48.526;9.044;2022-10-22T11:28:32;1.67;;;0.93;;
69083;SDS011;56185;48.526;9.044;2022-10-22T11:31:02;2.35;;;0.85;;
69083;SDS011;56185;48.526;9.044;2022-10-22T11:33:32;4.35;;;1.25;;
69083;SDS011;56185;48.526;9.044;2022-10-22T11:36:07;3.17;;;0.90;;
69083;SDS011;56185;48.526;9.044;2022-10-22T11:38:35;1.48;;;0.80;;
69083;SDS011;56185;48.526;9.044;2022-10-22T11:41:13;2.30;;;0.82;;
69083;SDS011;56185;48.526;9.044;2022-10-22T11:43:51;3.80;;;0.90;;
69083;SDS011;56185;48.526;9.044;2022-10-22T11:48:44;2.10;;;0.77;;
69083;SDS011;56185;48.526;9.044;2022-10-22T11:51:31;2.20;;;0.80;;
69083;SDS011;56185;48.526;9.044;2022-10-22T11:54:00;3.20;;;1.00;;
69083;SDS011;56185;48.526;9.044;2022-10-22T11:56:35;3.00;;;1.10;;
69083;SDS011;56185;48.526;9.044;2022-10-22T11:59:02;1.75;;;0.88;;
69083;SDS011;56185;48.526;9.044;2022-10-22T12:01:28;3.92;;;1.23;;
69083;SDS011;56185;48.526;9.044;2022-10-22T12:04:16;3.53;;;1.00;;
69083;SDS011;56185;48.526;9.044;2022-10-22T12:09:22;5.00;;;1.00;;
69083;SDS011;56185;48.526;9.044;2022-10-22T12:11:49;4.03;;;1.10;;
69083;SDS011;56185;48.526;9.044;2022-10-22T12:16:43;3.80;;;1.45;;
69083;SDS011;56185;48.526;9.044;2022-10-22T12:19:12;6.85;;;1.30;;
69083;SDS011;56185;48.526;9.044;2022-10-22T12:21:40;3.75;;;1.17;;
69083;SDS011;56185;48.526;9.044;2022-10-22T12:24:11;2.63;;;1.00;;
69083;SDS011;56185;48.526;9.044;2022-10-22T12:26:44;3.15;;;0.95;;
69083;SDS011;56185;48.526;9.044;2022-10-22T12:29:56;5.45;;;1.10;;
69083;SDS011;56185;48.526;9.044;2022-10-22T12:32:27;4.60;;;1.00;;
69083;SDS011;56185;48.526;9.044;2022-10-22T12:34:57;3.03;;;1.20;;
69083;SDS011;56185;48.526;9.044;2022-10-22T12:37:29;1.60;;;0.90;;
69083;SDS011;56185;48.526;9.044;2022-10-22T12:39:54;1.60;;;0.80;;
69083;SDS011;56185;48.526;9.044;2022-10-22T12:42:19;3.53;;;1.10;;
69083;SDS011;56185;48.526;9.044;2022-10-22T12:44:45;2.90;;;1.00;;
69083;SDS011;56185;48.526;9.044;2022-10-22T12:47:14;4.05;;;1.00;;
69083;SDS011;56185;48.526;9.044;2022-10-22T12:49:42;3.13;;;0.90;;
69083;SDS011;56185;48.526;9.044;2022-10-22T12:52:15;3.08;;;1.05;;
69083;SDS011;56185;48.526;9.044;2022-10-22T12:54:43;3.28;;;1.10;;
69083;SDS011;56185;48.526;9.044;2022-10-22T12:57:15;4.43;;;1.00;;
69083;SDS011;56185;48.526;9.044;2022-10-22T12:59:42;3.00;;;0.98;;
69083;SDS011;56185;48.526;9.044;2022-10-22T13:02:23;2.22;;;0.80;;
69083;SDS011;56185;48.526;9.044;2022-10-22T13:08:08;3.03;;;0.82;;
69083;SDS011;56185;48.526;9.044;2022-10-22T13:10:36;4.15;;;1.23;;
69083;SDS011;56185;48.526;9.044;2022-10-22T13:13:03;2.53;;;1.10;;
69083;SDS011;56185;48.526;9.044;2022-10-22T13:15:31;1.95;;;0.77;;
69083;SDS011;56185;48.526;9.044;2022-10-22T13:18:01;3.05;;;1.02;;
69083;SDS011;56185;48.526;9.044;2022-10-22T13:20:31;2.50;;;1.00;;
69083;SDS011;56185;48.526;9.044;2022-10-22T13:25:24;2.70;;;0.95;;
69083;SDS011;56185;48.526;9.044;2022-10-22T13:27:51;3.67;;;0.90;;
69083;SDS011;56185;48.526;9.044;2022-10-22T13:30:31;3.47;;;0.90;;
69083;SDS011;56185;48.526;9.044;2022-10-22T13:33:03;4.53;;;1.10;;
69083;SDS011;56185;48.526;9.044;2022-10-22T13:35:32;2.33;;;0.95;;
69083;SDS011;56185;48.526;9.044;2022-10-22T13:37:59;5.43;;;1.20;;
69083;SDS011;56185;48.526;9.044;2022-10-22T13:40:25;3.13;;;0.93;;
69083;SDS011;56185;48.526;9.044;2022-10-22T13:42:51;2.33;;;0.90;;
69083;SDS011;56185;48.526;9.044;2022-10-22T13:45:17;3.85;;;1.10;;
69083;SDS011;56185;48.526;9.044;2022-10-22T13:47:49;2.85;;;1.00;;
69083;SDS011;56185;48.526;9.044;2022-10-22T13:50:17;3.53;;;0.90;;
69083;SDS011;56185;48.526;9.044;2022-10-22T13:52:45;3.97;;;1.15;;
69083;SDS011;56185;48.526;9.044;2022-10-22T13:55:23;9.93;;;1.00;;
69083;SDS011;56185;48.526;9.044;2022-10-22T13:57:50;2.30;;;0.93;;
69083;SDS011;56185;48.526;9.044;2022-10-22T14:00:19;2.28;;;0.90;;
69083;SDS011;56185;48.526;9.044;2022-10-22T14:02:46;3.35;;;1.10;;
69083;SDS011;56185;48.526;9.044;2022-10-22T14:05:12;5.22;;;0.95;;
69083;SDS011;56185;48.526;9.044;2022-10-22T14:07:39;3.80;;;1.00;;
69083;SDS011;56185;48.526;9.044;2022-10-22T14:10:08;3.40;;;1.10;;
69083;SDS011;56185;48.526;9.044;2022-10-22T14:12:38;5.32;;;0.82;;
69083;SDS011;56185;48.526;9.044;2022-10-22T14:15:03;6.13;;;1.07;;
69083;SDS011;56185;48.526;9.044;2022-10-22T14:17:30;2.45;;;0.80;;
69083;SDS011;56185;48.526;9.044;2022-10-22T14:19:55;1.70;;;0.90;;
69083;SDS011;56185;48.526;9.044;2022-10-22T14:22:20;3.27;;;0.90;;
69083;SDS011;56185;48.526;9.044;2022-10-22T14:24:50;4.22;;;0.90;;
69083;SDS011;56185;48.526;9.044;2022-10-22T14:27:16;2.17;;;0.80;;
69083;SDS011;56185;48.526;9.044;2022-10-22T14:29:41;3.67;;;0.80;;
69083;SDS011;56185;48.526;9.044;2022-10-22T14:32:13;3.90;;;0.88;;
69083;SDS011;56185;48.526;9.044;2022-10-22T14:34:40;5.97;;;1.10;;
69083;SDS011;56185;48.526;9.044;2022-10-22T14:37:12;3.72;;;1.15;;
69083;SDS011;56185;48.526;9.044;2022-10-22T14:39:43;3.10;;;0.82;;
69083;SDS011;56185;48.526;9.044;2022-10-22T14:42:09;4.45;;;1.95;;
69083;SDS011;56185;48.526;9.044;2022-10-22T14:44:35;3.95;;;1.10;;
69083;SDS011;56185;48.526;9.044;2022-10-22T14:47:00;3.43;;;1.20;;
69083;SDS011;56185;48.526;9.044;2022-10-22T14:49:25;5.00;;;0.90;;
69083;SDS011;56185;48.526;9.044;2022-10-22T14:51:51;2.50;;;0.90;;
69083;SDS011;56185;48.526;9.044;2022-10-22T14:54:16;1.50;;;0.77;;
69083;SDS011;56185;48.526;9.044;2022-10-22T14:56:41;2.40;;;0.80;;
69083;SDS011;56185;48.526;9.044;2022-10-22T14:59:06;3.70;;;0.93;;
69083;SDS011;56185;48.526;9.044;2022-10-22T15:01:31;3.77;;;1.00;;
69083;SDS011;56185;48.526;9.044;2022-10-22T15:03:57;2.50;;;0.90;;
69083;SDS011;56185;48.526;9.044;2022-10-22T15:06:22;2.23;;;0.90;;
69083;SDS011;56185;48.526;9.044;2022-10-22T15:08:47;4.73;;;1.10;;
69083;SDS011;56185;48.526;9.044;2022-10-22T15:11:13;4.00;;;1.00;;
69083;SDS011;56185;48.526;9.044;2022-10-22T15:13:38;2.03;;;0.87;;
69083;SDS011;56185;48.526;9.044;2022-10-22T15:16:06;1.58;;;0.80;;
69083;SDS011;56185;48.526;9.044;2022-10-22T15:18:33;3.70;;;1.25;;
69083;SDS011;56185;48.526;9.044;2022-10-22T15:21:03;2.50;;;0.90;;
69083;SDS011;56185;48.526;9.044;2022-10-22T15:23:30;2.92;;;1.08;;
69083;SDS011;56185;48.526;9.044;2022-10-22T15:25:56;2.15;;;1.00;;
69083;SDS011;56185;48.526;9.044;2022-10-22T15:28:22;5.53;;;0.93;;
69083;SDS011;56185;48.526;9.044;2022-10-22T15:30:55;2.35;;;1.08;;
69083;SDS011;56185;48.526;9.044;2022-10-22T15:33:21;5.10;;;1.10;;
69083;SDS011;56185;48.526;9.044;2022-10-22T15:35:47;3.08;;;0.95;;
69083;SDS011;56185;48.526;9.044;2022-10-22T15:38:12;3.33;;;0.90;;
69083;SDS011;56185;48.526;9.044;2022-10-22T15:40:37;4.47;;;1.03;;
69083;SDS011;56185;48.526;9.044;2022-10-22T15:43:03;4.20;;;1.07;;
69083;SDS011;56185;48.526;9.044;2022-10-22T15:45:28;5.75;;;1.15;;
69083;SDS011;56185;48.526;9.044;2022-10-22T15:47:53;5.10;;;1.07;;
69083;SDS011;56185;48.526;9.044;2022-10-22T15:50:18;6.63;;;1.20;;
69083;SDS011;56185;48.526;9.044;2022-10-22T15:52:46;5.35;;;1.15;;
69083;SDS011;56185;48.526;9.044;2022-10-22T15:55:12;4.63;;;1.10;;
69083;SDS011;56185;48.526;9.044;2022-10-22T15:57:37;5.22;;;1.10;;
69083;SDS011;56185;48.526;9.044;2022-10-22T16:00:03;5.30;;;1.20;;
69083;SDS011;56185;48.526;9.044;2022-10-22T16:02:29;3.67;;;0.90;;
69083;SDS011;56185;48.526;9.044;2022-10-22T16:04:55;4.35;;;1.30;;
69083;SDS011;56185;48.526;9.044;2022-10-22T16:07:20;2.73;;;1.37;;
69083;SDS011;56185;48.526;9.044;2022-10-22T16:09:45;5.07;;;1.20;;
69083;SDS011;56185;48.526;9.044;2022-10-22T16:12:10;4.30;;;1.27;;
69083;SDS011;56185;48.526;9.044;2022-10-22T16:14:36;8.17;;;1.40;;
69083;SDS011;56185;48.526;9.044;2022-10-22T16:17:01;3.23;;;1.20;;
69083;SDS011;56185;48.526;9.044;2022-10-22T16:19:26;3.30;;;1.10;;